createdAt,value
2022-12-27T00:00:51.000Z,48.9
2022-12-27T00:02:01.951Z,48.9
2022-12-27T00:03:11.000Z,48.9
2022-12-27T00:04:20.000Z,48.9
2022-12-27T00:05:30.000Z,48.9
2022-12-27T00:06:40.000Z,48.9
2022-12-27T00:07:50.000Z,48.9
2022-12-27T00:09:00.000Z,48.8
2022-12-27T00:10:10.806Z,48.8
2022-12-27T00:11:20.000Z,48.8
2022-12-27T00:12:31.000Z,48.8
2022-12-27T00:13:41.000Z,48.8
2022-12-27T00:14:51.000Z,48.8
2022-12-27T00:16:01.000Z,48.8
2022-12-27T00:17:11.000Z,48.8
2022-12-27T00:18:21.000Z,48.8
2022-12-27T00:19:30.000Z,48.8
2022-12-27T00:20:40.853Z,48.8
2022-12-27T00:21:50.978Z,48.8
2022-12-27T00:23:01.000Z,48.8
2022-12-27T00:24:11.000Z,48.8
2022-12-27T00:25:21.000Z,48.8
2022-12-27T00:26:31.000Z,48.8
2022-12-27T00:27:40.000Z,48.8
2022-12-27T00:28:49.000Z,48.8
2022-12-27T00:29:59.832Z,48.8
2022-12-27T00:31:08.976Z,48.7
2022-12-27T00:32:18.000Z,48.7
2022-12-27T00:33:28.000Z,48.7
2022-12-27T00:34:38.340Z,48.7
2022-12-27T00:35:48.000Z,48.7
2022-12-27T00:36:58.000Z,48.7
2022-12-27T00:38:08.000Z,48.7
2022-12-27T00:39:18.000Z,48.7
2022-12-27T00:40:28.000Z,48.7
2022-12-27T00:41:39.000Z,48.7
2022-12-27T00:42:49.167Z,48.7
2022-12-27T00:43:59.276Z,48.7
2022-12-27T00:46:19.000Z,48.7
2022-12-27T00:47:28.000Z,48.7
2022-12-27T00:48:38.000Z,48.7
2022-12-27T00:49:48.876Z,48.7
2022-12-27T00:50:59.000Z,48.7
2022-12-27T00:52:08.000Z,48.6
2022-12-27T00:53:18.000Z,48.6
2022-12-27T00:54:28.000Z,48.6
2022-12-27T00:55:38.000Z,48.6
2022-12-27T00:56:48.000Z,48.6
2022-12-27T00:57:58.000Z,48.6
2022-12-27T00:59:08.000Z,48.6
2022-12-27T01:00:17.976Z,48.6
2022-12-27T01:01:27.000Z,48.6
2022-12-27T01:02:37.000Z,48.6
2022-12-27T01:04:57.000Z,48.6
2022-12-27T01:06:06.000Z,48.6
2022-12-27T01:07:15.000Z,48.6
2022-12-27T01:08:25.850Z,48.6
2022-12-27T01:09:35.972Z,48.6
2022-12-27T01:10:46.000Z,48.6
2022-12-27T01:11:56.000Z,48.6
2022-12-27T01:13:06.000Z,48.5
2022-12-27T01:14:16.000Z,48.5
2022-12-27T01:15:26.000Z,48.5
2022-12-27T01:16:36.674Z,48.5
2022-12-27T01:17:46.000Z,48.5
2022-12-27T01:18:56.000Z,48.5
2022-12-27T01:20:07.000Z,48.5
2022-12-27T01:21:17.137Z,48.5
2022-12-27T01:22:26.000Z,48.5
2022-12-27T01:23:36.000Z,48.5
2022-12-27T01:24:46.000Z,48.5
2022-12-27T01:25:56.000Z,48.5
2022-12-27T01:27:06.739Z,48.5
2022-12-27T01:28:16.853Z,48.5
2022-12-27T01:29:26.000Z,48.5
2022-12-27T01:30:36.000Z,48.5
2022-12-27T01:31:45.254Z,48.5
2022-12-27T01:32:55.364Z,48.5
2022-12-27T01:34:04.000Z,48.5
2022-12-27T01:35:13.647Z,48.5
2022-12-27T01:36:23.757Z,48.5
2022-12-27T01:37:33.000Z,48.5
2022-12-27T01:38:44.000Z,48.4
2022-12-27T01:39:54.000Z,48.5
2022-12-27T01:41:04.000Z,48.4
2022-12-27T01:42:14.342Z,48.4
2022-12-27T01:43:24.457Z,48.4
2022-12-27T01:44:34.000Z,48.4
2022-12-27T01:45:44.000Z,48.4
2022-12-27T01:46:54.000Z,48.4
2022-12-27T01:48:04.000Z,48.4
2022-12-27T01:49:15.000Z,48.4
2022-12-27T01:50:24.000Z,48.4
2022-12-27T01:51:34.000Z,48.4
2022-12-27T01:52:44.000Z,48.4
2022-12-27T01:53:54.000Z,48.4
2022-12-27T01:55:04.642Z,48.4
2022-12-27T01:56:14.000Z,48.4
2022-12-27T01:57:24.000Z,48.4
2022-12-27T01:58:35.000Z,48.4
2022-12-27T01:59:45.000Z,48.4
2022-12-27T02:00:55.000Z,48.3
2022-12-27T02:02:05.344Z,48.3
2022-12-27T02:03:15.000Z,48.3
2022-12-27T02:04:25.581Z,48.4
2022-12-27T02:05:34.000Z,48.3
2022-12-27T02:06:44.000Z,48.3
2022-12-27T02:07:54.000Z,48.3
2022-12-27T02:09:05.000Z,48.3
2022-12-27T02:10:15.000Z,48.3
2022-12-27T02:11:25.000Z,48.3
2022-12-27T02:12:35.000Z,48.3
2022-12-27T02:13:45.000Z,48.3
2022-12-27T02:14:55.000Z,48.3
2022-12-27T02:16:05.000Z,48.3
2022-12-27T02:17:15.000Z,48.3
2022-12-27T02:18:26.000Z,48.3
2022-12-27T02:19:36.111Z,48.3
2022-12-27T02:20:45.000Z,48.3
2022-12-27T02:21:55.368Z,48.3
2022-12-27T02:23:05.000Z,48.3
2022-12-27T02:24:15.000Z,48.3
2022-12-27T02:25:25.000Z,48.2
2022-12-27T02:26:35.000Z,48.3
2022-12-27T02:27:45.000Z,48.4
2022-12-27T02:28:56.000Z,48.3
2022-12-27T02:30:06.179Z,48.4
2022-12-27T02:31:16.298Z,48.3
2022-12-27T02:32:26.000Z,48.2
2022-12-27T02:33:36.000Z,48.2
2022-12-27T02:34:46.000Z,48.3
2022-12-27T02:35:55.000Z,48.3
2022-12-27T02:37:05.000Z,48.3
2022-12-27T02:38:16.000Z,48.3
2022-12-27T02:39:26.130Z,48.3
2022-12-27T02:40:36.000Z,48.3
2022-12-27T02:41:46.358Z,48.3
2022-12-27T02:42:56.000Z,48.3
2022-12-27T02:44:06.000Z,48.3
2022-12-27T02:45:16.000Z,48.3
2022-12-27T02:46:26.000Z,48.3
2022-12-27T02:47:36.000Z,48.3
2022-12-27T02:48:47.061Z,48.3
2022-12-27T02:49:57.000Z,48.3
2022-12-27T02:51:06.312Z,48.1
2022-12-27T02:52:16.000Z,48.1
2022-12-27T02:53:26.000Z,48.1
2022-12-27T02:54:36.000Z,48.1
2022-12-27T02:55:46.000Z,48.1
2022-12-27T02:56:56.000Z,48.1
2022-12-27T02:58:07.000Z,48.1
2022-12-27T02:59:17.000Z,48.1
2022-12-27T03:00:27.244Z,48.1
2022-12-27T03:01:37.000Z,48.1
2022-12-27T03:02:47.000Z,48.1
2022-12-27T03:03:57.000Z,48.1
2022-12-27T03:05:07.000Z,48.1
2022-12-27T03:06:16.000Z,48.1
2022-12-27T03:07:26.000Z,48.1
2022-12-27T03:08:37.000Z,48.1
2022-12-27T03:09:47.000Z,48.1
2022-12-27T03:10:57.000Z,48.1
2022-12-27T03:12:07.427Z,48.1
2022-12-27T03:13:17.000Z,48.1
2022-12-27T03:14:27.661Z,48.1
2022-12-27T03:15:37.779Z,48.1
2022-12-27T03:16:47.000Z,48
2022-12-27T03:17:58.000Z,48
2022-12-27T03:19:08.129Z,48
2022-12-27T03:20:18.244Z,48
2022-12-27T03:21:27.384Z,48
2022-12-27T03:22:37.000Z,48.1
2022-12-27T03:23:47.000Z,48
2022-12-27T03:24:57.000Z,48
2022-12-27T03:26:07.000Z,48
2022-12-27T03:27:17.964Z,48
2022-12-27T03:28:28.000Z,48
2022-12-27T03:29:38.197Z,48
2022-12-27T03:30:48.318Z,48
2022-12-27T03:31:58.433Z,48
2022-12-27T03:33:08.548Z,48
2022-12-27T03:34:18.000Z,48
2022-12-27T03:35:28.000Z,48
2022-12-27T03:36:37.911Z,48
2022-12-27T03:37:48.040Z,48
2022-12-27T03:38:58.000Z,48
2022-12-27T03:40:08.263Z,48
2022-12-27T03:41:18.382Z,48
2022-12-27T03:42:28.000Z,48
2022-12-27T03:43:38.620Z,48
2022-12-27T03:44:48.000Z,48
2022-12-27T03:45:58.000Z,47.9
2022-12-27T03:47:08.000Z,47.9
2022-12-27T03:48:19.000Z,47.9
2022-12-27T03:49:29.202Z,47.9
2022-12-27T03:50:39.316Z,47.9
2022-12-27T03:51:48.000Z,47.9
2022-12-27T03:52:58.000Z,47.9
2022-12-27T03:54:08.698Z,47.9
2022-12-27T03:55:18.000Z,47.9
2022-12-27T03:56:28.000Z,47.9
2022-12-27T03:57:39.032Z,47.9
2022-12-27T03:58:49.000Z,47.9
2022-12-27T03:59:59.000Z,47.9
2022-12-27T04:01:09.000Z,47.9
2022-12-27T04:02:19.510Z,47.9
2022-12-27T04:03:29.000Z,47.9
2022-12-27T04:04:39.000Z,47.9
2022-12-27T04:05:49.859Z,47.9
2022-12-27T04:06:59.000Z,47.9
2022-12-27T04:08:10.000Z,47.9
2022-12-27T04:09:19.000Z,47.9
2022-12-27T04:10:28.000Z,47.8
2022-12-27T04:11:38.480Z,47.9
2022-12-27T04:12:47.000Z,47.8
2022-12-27T04:13:56.000Z,47.9
2022-12-27T04:15:06.000Z,47.9
2022-12-27T04:16:17.000Z,47.8
2022-12-27T04:17:27.000Z,47.8
2022-12-27T04:18:37.000Z,47.8
2022-12-27T04:19:47.344Z,47.8
2022-12-27T04:20:57.000Z,47.8
2022-12-27T04:22:07.578Z,47.8
2022-12-27T04:23:17.691Z,47.8
2022-12-27T04:24:27.000Z,47.8
2022-12-27T04:25:37.000Z,47.8
2022-12-27T04:26:48.000Z,47.8
2022-12-27T04:27:58.000Z,47.8
2022-12-27T04:29:07.000Z,47.8
2022-12-27T04:30:17.000Z,47.8
2022-12-27T04:31:27.000Z,47.8
2022-12-27T04:32:37.000Z,47.8
2022-12-27T04:33:47.000Z,47.8
2022-12-27T04:34:57.000Z,47.8
2022-12-27T04:36:08.000Z,47.8
2022-12-27T04:37:18.000Z,47.8
2022-12-27T04:38:28.000Z,47.8
2022-12-27T04:39:38.000Z,47.8
2022-12-27T04:40:48.000Z,47.8
2022-12-27T04:41:58.000Z,47.8
2022-12-27T04:43:08.000Z,47.8
2022-12-27T04:44:17.000Z,47.8
2022-12-27T04:46:38.000Z,47.8
2022-12-27T04:47:47.000Z,47.8
2022-12-27T04:48:57.315Z,47.8
2022-12-27T04:50:07.431Z,47.8
2022-12-27T04:51:17.000Z,47.8
2022-12-27T04:52:27.000Z,47.7
2022-12-27T04:53:37.000Z,47.7
2022-12-27T04:54:47.894Z,47.7
2022-12-27T04:55:58.000Z,47.7
2022-12-27T04:57:08.000Z,47.7
2022-12-27T04:58:18.000Z,47.7
2022-12-27T04:59:28.000Z,47.7
2022-12-27T05:00:38.478Z,47.7
2022-12-27T05:01:48.000Z,47.7
2022-12-27T05:02:58.000Z,47.7
2022-12-27T05:04:07.850Z,47.7
2022-12-27T05:05:17.963Z,47.7
2022-12-27T05:06:28.086Z,47.7
2022-12-27T05:07:38.000Z,47.7
2022-12-27T05:08:48.000Z,47.7
2022-12-27T05:09:58.000Z,47.7
2022-12-27T05:11:08.000Z,47.7
2022-12-27T05:12:18.000Z,47.7
2022-12-27T05:13:28.000Z,47.6
2022-12-27T05:14:38.900Z,47.7
2022-12-27T05:15:49.000Z,47.6
2022-12-27T05:16:59.000Z,47.6
2022-12-27T05:18:09.000Z,47.6
2022-12-27T05:19:18.000Z,47.6
2022-12-27T05:20:28.498Z,47.6
2022-12-27T05:21:38.000Z,47.6
2022-12-27T05:22:48.732Z,47.6
2022-12-27T05:23:58.851Z,47.6
2022-12-27T05:25:08.000Z,47.6
2022-12-27T05:26:19.000Z,47.6
2022-12-27T05:27:29.000Z,47.6
2022-12-27T05:28:39.320Z,47.6
2022-12-27T05:29:49.000Z,47.6
2022-12-27T05:30:59.000Z,47.6
2022-12-27T05:32:09.667Z,47.6
2022-12-27T05:33:19.782Z,47.6
2022-12-27T05:34:28.000Z,47.6
2022-12-27T05:35:39.033Z,47.6
2022-12-27T05:36:49.000Z,47.6
2022-12-27T05:37:59.000Z,47.6
2022-12-27T05:39:09.388Z,47.6
2022-12-27T05:40:19.000Z,47.6
2022-12-27T05:41:29.000Z,47.6
2022-12-27T05:42:39.000Z,47.6
2022-12-27T05:43:49.000Z,47.6
2022-12-27T05:44:59.984Z,47.6
2022-12-27T05:46:10.000Z,47.6
2022-12-27T05:47:20.000Z,47.6
2022-12-27T05:48:30.000Z,47.6
2022-12-27T05:49:39.464Z,47.6
2022-12-27T05:50:49.000Z,47.6
2022-12-27T05:51:59.000Z,47.5
2022-12-27T05:53:09.807Z,47.6
2022-12-27T05:54:19.000Z,47.5
2022-12-27T05:55:30.000Z,47.5
2022-12-27T05:56:40.000Z,47.5
2022-12-27T05:57:50.000Z,47.6
2022-12-27T05:59:00.000Z,47.6
2022-12-27T06:00:10.509Z,47.6
2022-12-27T06:01:20.000Z,47.5
2022-12-27T06:02:30.000Z,47.6
2022-12-27T06:03:40.000Z,47.5
2022-12-27T06:04:49.984Z,47.6
2022-12-27T06:07:10.000Z,47.6
2022-12-27T06:08:20.336Z,47.6
2022-12-27T06:09:30.000Z,47.6
2022-12-27T06:10:40.576Z,47.6
2022-12-27T06:11:50.683Z,47.6
2022-12-27T06:13:00.803Z,47.6
2022-12-27T06:14:10.916Z,47.6
2022-12-27T06:15:21.000Z,47.6
2022-12-27T06:16:31.000Z,47.6
2022-12-27T06:17:41.268Z,47.6
2022-12-27T06:18:51.000Z,47.6
2022-12-27T06:20:00.000Z,47.6
2022-12-27T06:21:10.000Z,47.6
2022-12-27T06:22:19.777Z,47.6
2022-12-27T06:23:28.000Z,47.6
2022-12-27T06:24:39.000Z,47.6
2022-12-27T06:25:48.000Z,47.6
2022-12-27T06:26:58.000Z,47.6
2022-12-27T06:28:07.422Z,47.6
2022-12-27T06:29:17.000Z,47.6
2022-12-27T06:30:27.657Z,47.6
2022-12-27T06:31:37.000Z,47.5
2022-12-27T06:33:58.000Z,47.5
2022-12-27T06:35:08.122Z,47.5
2022-12-27T06:36:18.238Z,47.5
2022-12-27T06:37:28.000Z,47.5
2022-12-27T06:38:38.000Z,47.5
2022-12-27T06:39:48.000Z,47.5
2022-12-27T06:40:58.000Z,47.5
2022-12-27T06:42:08.827Z,47.5
2022-12-27T06:43:17.000Z,47.5
2022-12-27T06:44:28.078Z,47.5
2022-12-27T06:45:38.000Z,47.5
2022-12-27T06:46:48.308Z,47.5
2022-12-27T06:47:58.424Z,47.5
2022-12-27T06:50:18.000Z,47.5
2022-12-27T06:51:28.782Z,47.5
2022-12-27T06:52:38.000Z,47.5
2022-12-27T06:53:49.008Z,47.5
2022-12-27T06:54:59.000Z,47.5
2022-12-27T06:56:09.000Z,47.5
2022-12-27T06:57:19.000Z,47.5
2022-12-27T06:58:28.000Z,47.5
2022-12-27T06:59:38.000Z,47.5
2022-12-27T07:00:48.000Z,47.5
2022-12-27T07:01:58.843Z,47.5
2022-12-27T07:03:08.000Z,47.5
2022-12-27T07:05:28.000Z,47.5
2022-12-27T07:06:37.000Z,47.4
2022-12-27T07:07:46.000Z,47.5
2022-12-27T07:08:56.000Z,47.5
2022-12-27T07:10:05.000Z,47.4
2022-12-27T07:11:14.000Z,47.4
2022-12-27T07:12:25.000Z,47.4
2022-12-27T07:13:35.000Z,47.4
2022-12-27T07:14:45.000Z,47.4
2022-12-27T07:15:55.000Z,47.4
2022-12-27T07:17:05.000Z,47.4
2022-12-27T07:18:15.000Z,47.4
2022-12-27T07:19:25.000Z,47.4
2022-12-27T07:20:35.826Z,47.4
2022-12-27T07:21:45.000Z,47.4
2022-12-27T07:22:56.000Z,47.4
2022-12-27T07:24:06.171Z,47.4
2022-12-27T07:25:16.289Z,47.4
2022-12-27T07:26:26.414Z,47.4
2022-12-27T07:27:35.000Z,47.4
2022-12-27T07:28:45.000Z,47.4
2022-12-27T07:29:55.774Z,47.4
2022-12-27T07:31:05.894Z,47.4
2022-12-27T07:32:16.010Z,47.4
2022-12-27T07:33:26.122Z,47.4
2022-12-27T07:34:36.000Z,47.4
2022-12-27T07:35:46.000Z,47.4
2022-12-27T07:36:56.478Z,47.4
2022-12-27T07:38:06.000Z,47.4
2022-12-27T07:39:16.000Z,47.4
2022-12-27T07:40:26.000Z,47.4
2022-12-27T07:41:36.943Z,47.4
2022-12-27T07:42:46.000Z,47.4
2022-12-27T07:43:56.197Z,47.4
2022-12-27T07:45:06.000Z,47.4
2022-12-27T07:46:16.000Z,47.3
2022-12-27T07:47:26.543Z,47.3
2022-12-27T07:48:36.000Z,47.3
2022-12-27T07:49:46.000Z,47.3
2022-12-27T07:50:56.000Z,47.3
2022-12-27T07:52:07.000Z,47.3
2022-12-27T07:53:17.000Z,47.3
2022-12-27T07:54:27.240Z,47.3
2022-12-27T07:55:37.371Z,47.3
2022-12-27T07:56:47.000Z,47.3
2022-12-27T07:57:56.000Z,47.3
2022-12-27T07:59:06.000Z,47.3
2022-12-27T08:00:16.000Z,47.3
2022-12-27T08:01:26.000Z,47.3
2022-12-27T08:02:37.075Z,47.3
2022-12-27T08:03:47.000Z,47.3
2022-12-27T08:04:57.000Z,47.3
2022-12-27T08:06:07.435Z,47.3
2022-12-27T08:07:17.000Z,47.3
2022-12-27T08:08:27.000Z,47.3
2022-12-27T08:09:37.776Z,47.3
2022-12-27T08:10:47.000Z,47.3
2022-12-27T08:11:58.011Z,47.3
2022-12-27T08:13:07.000Z,47.1
2022-12-27T08:14:17.000Z,47.3
2022-12-27T08:15:27.000Z,47.3
2022-12-27T08:16:37.000Z,47.3
2022-12-27T08:17:47.000Z,47.3
2022-12-27T08:18:57.000Z,47.3
2022-12-27T08:20:07.846Z,47.3
2022-12-27T08:21:17.000Z,47.3
2022-12-27T08:22:28.000Z,47.1
2022-12-27T08:23:38.000Z,47.3
2022-12-27T08:24:48.313Z,47.3
2022-12-27T08:27:08.000Z,47.1
2022-12-27T08:28:17.000Z,47.1
2022-12-27T08:29:27.000Z,47.1
2022-12-27T08:30:37.000Z,47.1
2022-12-27T08:31:48.000Z,47.1
2022-12-27T08:32:58.000Z,47.1
2022-12-27T08:34:08.264Z,47.1
2022-12-27T08:35:18.375Z,47.1
2022-12-27T08:36:28.000Z,47.1
2022-12-27T08:37:38.000Z,47.1
2022-12-27T08:38:48.734Z,47.1
2022-12-27T08:39:58.000Z,47.1
2022-12-27T08:41:08.000Z,47.1
2022-12-27T08:42:17.000Z,47.1
2022-12-27T08:43:27.000Z,47.1
2022-12-27T08:44:36.000Z,47.1
2022-12-27T08:46:55.000Z,47.1
2022-12-27T08:48:05.000Z,47.1
2022-12-27T08:49:15.000Z,47
2022-12-27T08:50:26.000Z,47.1
2022-12-27T08:51:36.000Z,47.1
2022-12-27T08:52:46.000Z,47
2022-12-27T08:53:56.000Z,47
2022-12-27T08:55:06.000Z,47
2022-12-27T08:56:16.000Z,47
2022-12-27T08:57:26.000Z,47
2022-12-27T08:58:36.000Z,47
2022-12-27T08:59:46.000Z,47
2022-12-27T09:00:56.000Z,47
2022-12-27T09:02:06.000Z,47
2022-12-27T09:03:16.000Z,47
2022-12-27T09:04:26.000Z,47
2022-12-27T09:05:36.000Z,47
2022-12-27T09:06:46.000Z,47
2022-12-27T09:07:56.000Z,47
2022-12-27T09:09:06.875Z,47
2022-12-27T09:10:16.986Z,47
2022-12-27T09:11:27.000Z,47
2022-12-27T09:12:37.000Z,47
2022-12-27T09:13:47.000Z,47
2022-12-27T09:14:57.457Z,47
2022-12-27T09:16:06.000Z,47
2022-12-27T09:18:26.000Z,47
2022-12-27T09:19:36.935Z,47
2022-12-27T09:20:47.000Z,47
2022-12-27T09:21:57.000Z,47
2022-12-27T09:23:07.000Z,47
2022-12-27T09:25:27.000Z,47
2022-12-27T09:26:37.000Z,47
2022-12-27T09:27:47.000Z,47
2022-12-27T09:28:57.877Z,47
2022-12-27T09:30:08.000Z,47
2022-12-27T09:31:17.000Z,47
2022-12-27T09:33:37.000Z,47
2022-12-27T09:34:46.000Z,47
2022-12-27T09:35:55.000Z,47
2022-12-27T09:37:05.746Z,47
2022-12-27T09:38:15.000Z,47
2022-12-27T09:39:25.000Z,47
2022-12-27T09:40:36.000Z,47
2022-12-27T09:41:46.215Z,47
2022-12-27T09:42:56.000Z,47
2022-12-27T09:44:06.000Z,47
2022-12-27T09:45:16.000Z,47
2022-12-27T09:46:26.000Z,47
2022-12-27T09:47:35.827Z,46.9
2022-12-27T09:48:44.000Z,47
2022-12-27T09:49:55.000Z,47
2022-12-27T09:51:05.197Z,46.9
2022-12-27T09:52:15.000Z,47
2022-12-27T09:53:25.431Z,46.9
2022-12-27T09:54:35.543Z,46.9
2022-12-27T09:55:45.000Z,46.9
2022-12-27T09:56:55.000Z,46.9
2022-12-27T09:58:05.000Z,46.9
2022-12-27T09:59:16.000Z,46.9
2022-12-27T10:00:26.000Z,46.9
2022-12-27T10:01:36.000Z,46.9
2022-12-27T10:02:46.000Z,46.9
2022-12-27T10:03:55.000Z,46.9
2022-12-27T10:05:05.609Z,46.9
2022-12-27T10:06:15.000Z,46.9
2022-12-27T10:08:35.970Z,46.9
2022-12-27T10:09:46.000Z,46.9
2022-12-27T10:10:56.000Z,46.9
2022-12-27T10:12:06.000Z,46.9
2022-12-27T10:13:16.000Z,46.9
2022-12-27T10:14:26.000Z,46.9
2022-12-27T10:15:36.000Z,46.9
2022-12-27T10:16:46.000Z,46.9
2022-12-27T10:17:56.000Z,46.9
2022-12-27T10:19:06.000Z,46.8
2022-12-27T10:20:16.000Z,46.8
2022-12-27T10:21:26.000Z,46.8
2022-12-27T10:23:46.000Z,46.8
2022-12-27T10:24:56.000Z,46.8
2022-12-27T10:26:06.000Z,46.8
2022-12-27T10:27:16.000Z,46.8
2022-12-27T10:28:26.000Z,46.8
2022-12-27T10:29:37.079Z,46.8
2022-12-27T10:30:47.000Z,46.8
2022-12-27T10:31:57.312Z,46.8
2022-12-27T10:33:07.433Z,46.8
2022-12-27T10:34:16.000Z,46.8
2022-12-27T10:35:26.000Z,46.8
2022-12-27T10:36:36.000Z,46.8
2022-12-27T10:37:46.000Z,46.8
2022-12-27T10:38:57.000Z,46.8
2022-12-27T10:40:07.000Z,46.8
2022-12-27T10:41:17.000Z,46.8
2022-12-27T10:42:27.000Z,46.8
2022-12-27T10:43:37.501Z,46.8
2022-12-27T10:44:47.000Z,46.8
2022-12-27T10:45:57.000Z,46.8
2022-12-27T10:47:07.000Z,46.8
2022-12-27T10:48:17.000Z,46.8
2022-12-27T10:49:27.000Z,46.8
2022-12-27T10:50:37.217Z,46.8
2022-12-27T10:51:47.000Z,46.8
2022-12-27T10:52:57.453Z,46.6
2022-12-27T10:54:07.000Z,46.6
2022-12-27T10:55:17.000Z,46.6
2022-12-27T10:56:27.804Z,46.6
2022-12-27T10:57:37.000Z,46.6
2022-12-27T10:58:48.000Z,46.6
2022-12-27T10:59:58.000Z,46.6
2022-12-27T11:01:08.000Z,46.6
2022-12-27T11:02:18.000Z,46.6
2022-12-27T11:03:28.000Z,46.6
2022-12-27T11:04:37.000Z,46.6
2022-12-27T11:05:47.000Z,46.6
2022-12-27T11:06:57.000Z,46.6
2022-12-27T11:08:08.000Z,46.6
2022-12-27T11:09:18.000Z,46.6
2022-12-27T11:10:28.000Z,46.6
2022-12-27T11:11:38.000Z,46.6
2022-12-27T11:12:48.456Z,46.6
2022-12-27T11:13:58.000Z,46.6
2022-12-27T11:15:08.000Z,46.6
2022-12-27T11:16:18.000Z,46.6
2022-12-27T11:17:28.000Z,46.6
2022-12-27T11:18:39.036Z,46.6
2022-12-27T11:19:48.000Z,46.6
2022-12-27T11:20:58.000Z,46.6
2022-12-27T11:22:08.000Z,46.6
2022-12-27T11:23:18.519Z,46.6
2022-12-27T11:24:28.000Z,46.6
2022-12-27T11:25:38.000Z,46.6
2022-12-27T11:26:48.000Z,46.6
2022-12-27T11:27:59.000Z,46.6
2022-12-27T11:29:09.109Z,46.6
2022-12-27T11:30:19.226Z,46.6
2022-12-27T11:31:29.000Z,46.6
2022-12-27T11:32:39.451Z,46.6
2022-12-27T11:34:59.000Z,46.6
2022-12-27T11:36:08.000Z,46.6
2022-12-27T11:37:18.000Z,46.5
2022-12-27T11:38:29.000Z,46.5
2022-12-27T11:39:39.000Z,46.5
2022-12-27T11:40:49.289Z,46.5
2022-12-27T11:41:59.000Z,46.5
2022-12-27T11:43:09.000Z,46.5
2022-12-27T11:44:19.000Z,46.5
2022-12-27T11:45:29.000Z,46.5
2022-12-27T11:46:39.000Z,46.5
2022-12-27T11:47:49.987Z,46.5
2022-12-27T11:49:00.000Z,46.5
2022-12-27T11:50:10.222Z,46.5
2022-12-27T11:51:19.355Z,46.5
2022-12-27T11:52:29.000Z,46.5
2022-12-27T11:53:39.000Z,46.5
2022-12-27T11:54:48.000Z,46.5
2022-12-27T11:55:57.000Z,46.5
2022-12-27T11:57:07.000Z,46.5
2022-12-27T11:58:18.000Z,46.5
2022-12-27T11:59:28.000Z,46.5
2022-12-27T12:00:38.000Z,46.5
2022-12-27T12:01:47.000Z,46.5
2022-12-27T12:02:56.000Z,46.5
2022-12-27T12:04:06.000Z,46.5
2022-12-27T12:05:16.000Z,46.5
2022-12-27T12:06:26.000Z,46.5
2022-12-27T12:08:47.192Z,46.5
2022-12-27T12:09:57.000Z,46.5
2022-12-27T12:11:07.000Z,46.5
2022-12-27T12:12:17.000Z,46.4
2022-12-27T12:13:27.000Z,46.5
2022-12-27T12:14:37.000Z,46.4
2022-12-27T12:15:47.000Z,46.5
2022-12-27T12:16:58.000Z,46.5
2022-12-27T12:18:07.000Z,46.4
2022-12-27T12:19:17.000Z,46.4
2022-12-27T12:20:27.000Z,46.5
2022-12-27T12:21:37.000Z,46.5
2022-12-27T12:22:47.000Z,46.4
2022-12-27T12:23:57.000Z,46.4
2022-12-27T12:25:07.000Z,46.4
2022-12-27T12:26:17.964Z,46.4
2022-12-27T12:27:27.000Z,46.4
2022-12-27T12:28:36.239Z,46.5
2022-12-27T12:29:45.000Z,46.5
2022-12-27T12:30:54.000Z,46.4
2022-12-27T12:32:04.000Z,46.4
2022-12-27T12:33:14.000Z,46.4
2022-12-27T12:34:24.000Z,46.4
2022-12-27T12:35:34.000Z,46.4
2022-12-27T12:36:44.114Z,46.4
2022-12-27T12:37:54.000Z,46.4
2022-12-27T12:39:04.000Z,46.4
2022-12-27T12:40:14.000Z,46.4
2022-12-27T12:41:24.000Z,46.4
2022-12-27T12:42:34.697Z,46.4
2022-12-27T12:43:44.000Z,46.4
2022-12-27T12:44:54.000Z,46.4
2022-12-27T12:46:05.000Z,46.4
2022-12-27T12:47:15.000Z,46.4
2022-12-27T12:48:25.000Z,46.4
2022-12-27T12:49:35.403Z,46.4
2022-12-27T12:50:45.000Z,46.4
2022-12-27T12:51:54.000Z,46.4
2022-12-27T12:53:04.000Z,46.4
2022-12-27T12:54:14.000Z,46.4
2022-12-27T12:55:25.000Z,46.4
2022-12-27T12:56:35.000Z,46.4
2022-12-27T12:57:45.000Z,46.4
2022-12-27T12:58:55.000Z,46.4
2022-12-27T13:00:05.469Z,46.4
2022-12-27T13:01:15.000Z,46.4
2022-12-27T13:02:25.000Z,46.4
2022-12-27T13:03:35.000Z,46.4
2022-12-27T13:04:45.000Z,46.4
2022-12-27T13:05:56.000Z,46.4
2022-12-27T13:07:05.000Z,46.4
2022-12-27T13:08:15.000Z,46.4
2022-12-27T13:09:25.000Z,46.4
2022-12-27T13:10:35.000Z,46.4
2022-12-27T13:11:45.647Z,46.4
2022-12-27T13:12:55.000Z,46.4
2022-12-27T13:14:05.000Z,46.4
2022-12-27T13:15:16.000Z,46.4
2022-12-27T13:16:26.000Z,46.4
2022-12-27T13:17:36.000Z,46.4
2022-12-27T13:18:46.341Z,46.4
2022-12-27T13:19:56.000Z,46.4
2022-12-27T13:21:06.000Z,46.4
2022-12-27T13:22:15.000Z,46.4
2022-12-27T13:23:25.000Z,46.4
2022-12-27T13:24:35.000Z,46.4
2022-12-27T13:25:46.000Z,46.4
2022-12-27T13:26:56.176Z,46.4
2022-12-27T13:28:06.000Z,46.4
2022-12-27T13:29:16.000Z,46.4
2022-12-27T13:30:26.526Z,46.4
2022-12-27T13:31:36.000Z,46.4
2022-12-27T13:32:46.000Z,46.4
2022-12-27T13:33:56.000Z,46.4
2022-12-27T13:35:07.000Z,46.4
2022-12-27T13:36:17.109Z,46.4
2022-12-27T13:37:26.000Z,46.4
2022-12-27T13:38:36.356Z,46.4
2022-12-27T13:39:46.000Z,46.4
2022-12-27T13:40:56.000Z,46.4
2022-12-27T13:42:06.000Z,46.4
2022-12-27T13:43:16.000Z,46.4
2022-12-27T13:44:26.000Z,46.4
2022-12-27T13:45:37.000Z,46.4
2022-12-27T13:46:47.000Z,46.4
2022-12-27T13:47:57.000Z,46.4
2022-12-27T13:49:07.000Z,46.4
2022-12-27T13:50:17.000Z,46.4
2022-12-27T13:51:27.638Z,46.4
2022-12-27T13:52:36.000Z,46.4
2022-12-27T13:53:46.000Z,46.4
2022-12-27T13:54:57.000Z,46.4
2022-12-27T13:56:07.000Z,46.4
2022-12-27T13:57:17.000Z,46.4
2022-12-27T13:58:27.000Z,46.4
2022-12-27T13:59:37.475Z,46.4
2022-12-27T14:00:47.000Z,46.4
2022-12-27T14:01:57.701Z,46.4
2022-12-27T14:03:07.000Z,46.4
2022-12-27T14:04:17.000Z,46.4
2022-12-27T14:05:28.000Z,46.4
2022-12-27T14:06:38.000Z,46.4
2022-12-27T14:07:47.000Z,46.4
2022-12-27T14:08:57.416Z,46.4
2022-12-27T14:10:07.000Z,46.4
2022-12-27T14:11:17.000Z,46.4
2022-12-27T14:12:27.000Z,46.4
2022-12-27T14:13:37.000Z,46.4
2022-12-27T14:14:48.000Z,46.4
2022-12-27T14:15:58.000Z,46.4
2022-12-27T14:17:08.000Z,46.4
2022-12-27T14:18:18.000Z,46.4
2022-12-27T14:19:28.000Z,46.4
2022-12-27T14:20:38.000Z,46.4
2022-12-27T14:21:48.000Z,46.4
2022-12-27T14:22:57.834Z,46.4
2022-12-27T14:24:07.000Z,46.4
2022-12-27T14:25:18.000Z,46.4
2022-12-27T14:27:38.000Z,46.4
2022-12-27T14:28:48.417Z,46.4
2022-12-27T14:29:58.538Z,46.4
2022-12-27T14:31:08.000Z,46.4
2022-12-27T14:32:18.763Z,46.4
2022-12-27T14:33:28.000Z,46.4
2022-12-27T14:34:39.000Z,46.4
2022-12-27T14:35:49.111Z,46.4
2022-12-27T14:36:59.000Z,46.4
2022-12-27T14:38:08.370Z,46.4
2022-12-27T14:39:18.000Z,46.4
2022-12-27T14:40:28.000Z,46.4
2022-12-27T14:41:38.000Z,46.4
2022-12-27T14:42:48.000Z,46.4
2022-12-27T14:43:58.945Z,46.4
2022-12-27T14:45:09.062Z,46.4
2022-12-27T14:46:19.000Z,46.4
2022-12-27T14:47:29.000Z,46.4
2022-12-27T14:48:39.000Z,46.4
2022-12-27T14:49:49.537Z,46.4
2022-12-27T14:50:59.000Z,46.4
2022-12-27T14:52:09.000Z,46.4
2022-12-27T14:53:18.000Z,46.4
2022-12-27T14:55:39.000Z,46.4
2022-12-27T14:56:49.000Z,46.4
2022-12-27T14:57:59.000Z,46.4
2022-12-27T14:59:09.000Z,46.4
2022-12-27T15:00:19.000Z,46.4
2022-12-27T15:01:29.000Z,46.4
2022-12-27T15:02:39.000Z,46.4
2022-12-27T15:03:49.000Z,46.4
2022-12-27T15:05:00.000Z,46.4
2022-12-27T15:06:10.000Z,46.4
2022-12-27T15:07:20.000Z,46.4
2022-12-27T15:08:29.000Z,46.4
2022-12-27T15:09:39.000Z,46.4
2022-12-27T15:10:49.660Z,46.4
2022-12-27T15:11:59.000Z,46.4
2022-12-27T15:13:09.894Z,46.4
2022-12-27T15:14:20.000Z,46.4
2022-12-27T15:16:40.245Z,46.4
2022-12-27T15:17:50.000Z,46.4
2022-12-27T15:19:00.000Z,46.4
2022-12-27T15:20:10.000Z,46.4
2022-12-27T15:21:20.000Z,46.4
2022-12-27T15:22:30.000Z,46.4
2022-12-27T15:23:39.000Z,46.4
2022-12-27T15:24:50.000Z,46.4
2022-12-27T15:26:00.000Z,46.4
2022-12-27T15:27:10.309Z,46.4
2022-12-27T15:28:20.432Z,46.4
2022-12-27T15:30:40.000Z,46.4
2022-12-27T15:31:50.000Z,46.5
2022-12-27T15:33:00.000Z,46.5
2022-12-27T15:35:21.139Z,46.4
2022-12-27T15:36:30.000Z,46.4
2022-12-27T15:37:39.000Z,46.5
2022-12-27T15:38:49.000Z,46.5
2022-12-27T15:39:59.000Z,46.5
2022-12-27T15:41:09.000Z,46.5
2022-12-27T15:42:19.868Z,46.5
2022-12-27T15:43:29.000Z,46.6
2022-12-27T15:44:40.000Z,46.5
2022-12-27T15:45:50.218Z,46.5
2022-12-27T15:47:00.000Z,46.5
2022-12-27T15:48:10.448Z,46.5
2022-12-27T15:49:19.592Z,46.5
2022-12-27T15:50:29.000Z,46.5
2022-12-27T15:51:38.000Z,46.6
2022-12-27T15:52:48.000Z,46.6
2022-12-27T15:53:59.000Z,46.6
2022-12-27T15:55:09.192Z,46.6
2022-12-27T15:56:19.000Z,46.5
2022-12-27T15:57:29.000Z,46.6
2022-12-27T15:58:39.000Z,46.6
2022-12-27T15:59:49.659Z,46.6
2022-12-27T16:02:09.000Z,46.6
2022-12-27T16:03:20.000Z,46.6